sensor_id;sensor_type;location;lat;lon;timestamp;temperature;humidity
40085;DHT22;25786;51.504;7.344;2022-12-15T00:02:00;-3273.50;82.60
40085;DHT22;25786;51.504;7.344;2022-12-15T00:04:44;-3273.40;82.50
40085;DHT22;25786;51.504;7.344;2022-12-15T00:07:29;-3273.40;82.80
40085;DHT22;25786;51.504;7.344;2022-12-15T00:10:13;-3273.40;82.80
40085;DHT22;25786;51.504;7.344;2022-12-15T00:12:57;-3273.30;82.80
40085;DHT22;25786;51.504;7.344;2022-12-15T00:15:41;-3273.30;82.50
40085;DHT22;25786;51.504;7.344;2022-12-15T00:18:25;-3273.30;82.20
40085;DHT22;25786;51.504;7.344;2022-12-15T00:21:09;-3273.30;82.10
40085;DHT22;25786;51.504;7.344;2022-12-15T00:23:53;-3273.20;81.90
40085;DHT22;25786;51.504;7.344;2022-12-15T00:26:38;-3273.20;81.80
40085;DHT22;25786;51.504;7.344;2022-12-15T00:29:22;-3273.20;81.80
40085;DHT22;25786;51.504;7.344;2022-12-15T00:32:06;-3273.10;81.70
40085;DHT22;25786;51.504;7.344;2022-12-15T00:34:50;-3273.00;81.80
40085;DHT22;25786;51.504;7.344;2022-12-15T00:37:35;-3273.00;82.00
40085;DHT22;25786;51.504;7.344;2022-12-15T00:40:19;-3272.90;82.00
40085;DHT22;25786;51.504;7.344;2022-12-15T00:42:44;-3272.90;82.40
40085;DHT22;25786;51.504;7.344;2022-12-15T00:45:10;-3272.80;82.60
40085;DHT22;25786;51.504;7.344;2022-12-15T00:47:35;-3272.80;82.70
40085;DHT22;25786;51.504;7.344;2022-12-15T00:50:01;-3272.80;82.70
40085;DHT22;25786;51.504;7.344;2022-12-15T00:52:45;-3272.90;82.40
40085;DHT22;25786;51.504;7.344;2022-12-15T00:55:29;-3272.90;82.60
40085;DHT22;25786;51.504;7.344;2022-12-15T00:58:13;-3273.00;82.50
40085;DHT22;25786;51.504;7.344;2022-12-15T01:01:04;-3273.00;82.60
40085;DHT22;25786;51.504;7.344;2022-12-15T01:03:48;-3273.10;82.70
40085;DHT22;25786;51.504;7.344;2022-12-15T01:06:32;-3273.10;83.20
40085;DHT22;25786;51.504;7.344;2022-12-15T01:09:17;-3273.20;83.20
40085;DHT22;25786;51.504;7.344;2022-12-15T01:12:01;-3273.20;83.30
40085;DHT22;25786;51.504;7.344;2022-12-15T01:14:45;-3273.30;83.50
40085;DHT22;25786;51.504;7.344;2022-12-15T01:17:29;-3273.40;83.20
40085;DHT22;25786;51.504;7.344;2022-12-15T01:20:14;-3273.40;83.30
40085;DHT22;25786;51.504;7.344;2022-12-15T01:22:46;-3273.40;83.50
40085;DHT22;25786;51.504;7.344;2022-12-15T01:25:12;-3273.50;83.20
40085;DHT22;25786;51.504;7.344;2022-12-15T01:27:37;-3273.50;83.00
40085;DHT22;25786;51.504;7.344;2022-12-15T01:30:03;-3273.50;82.70
40085;DHT22;25786;51.504;7.344;2022-12-15T01:32:29;-3273.40;82.70
40085;DHT22;25786;51.504;7.344;2022-12-15T01:34:55;-3273.50;82.60
40085;DHT22;25786;51.504;7.344;2022-12-15T01:37:20;-3273.60;82.20
40085;DHT22;25786;51.504;7.344;2022-12-15T01:39:46;-3273.50;82.10
40085;DHT22;25786;51.504;7.344;2022-12-15T01:42:30;-3273.50;82.20
40085;DHT22;25786;51.504;7.344;2022-12-15T01:45:17;-3273.60;81.90
40085;DHT22;25786;51.504;7.344;2022-12-15T01:47:41;-3273.50;81.80
40085;DHT22;25786;51.504;7.344;2022-12-15T01:50:07;-3273.50;81.90
40085;DHT22;25786;51.504;7.344;2022-12-15T01:52:37;-3273.50;81.90
40085;DHT22;25786;51.504;7.344;2022-12-15T01:55:03;-3273.40;81.70
40085;DHT22;25786;51.504;7.344;2022-12-15T01:57:29;-3273.50;82.00
40085;DHT22;25786;51.504;7.344;2022-12-15T01:59:56;-3273.40;82.00
40085;DHT22;25786;51.504;7.344;2022-12-15T02:02:24;-3273.50;81.80
40085;DHT22;25786;51.504;7.344;2022-12-15T02:04:51;-3273.50;81.80
40085;DHT22;25786;51.504;7.344;2022-12-15T02:07:18;-3273.50;81.60
40085;DHT22;25786;51.504;7.344;2022-12-15T02:09:44;-3273.40;81.50
40085;DHT22;25786;51.504;7.344;2022-12-15T02:15:01;-3273.40;81.80
40085;DHT22;25786;51.504;7.344;2022-12-15T02:17:34;-3273.50;82.00
40085;DHT22;25786;51.504;7.344;2022-12-15T02:20:20;-3273.60;81.60
40085;DHT22;25786;51.504;7.344;2022-12-15T02:25:49;-3273.70;81.40
40085;DHT22;25786;51.504;7.344;2022-12-15T02:28:22;-3273.70;81.20
40085;DHT22;25786;51.504;7.344;2022-12-15T02:33:43;-3273.60;80.80
40085;DHT22;25786;51.504;7.344;2022-12-15T02:38:38;-3273.60;80.70
40085;DHT22;25786;51.504;7.344;2022-12-15T02:43:52;-3273.60;80.60
40085;DHT22;25786;51.504;7.344;2022-12-15T02:46:26;-3273.60;80.30
40085;DHT22;25786;51.504;7.344;2022-12-15T02:49:08;-3273.60;80.50
40085;DHT22;25786;51.504;7.344;2022-12-15T02:57:23;-3273.60;80.20
40085;DHT22;25786;51.504;7.344;2022-12-15T02:59:59;-3273.60;80.50
40085;DHT22;25786;51.504;7.344;2022-12-15T03:02:26;-3273.60;80.30
40085;DHT22;25786;51.504;7.344;2022-12-15T03:04:52;-3273.50;80.20
40085;DHT22;25786;51.504;7.344;2022-12-15T03:07:19;-3273.50;80.40
40085;DHT22;25786;51.504;7.344;2022-12-15T03:09:47;-3273.40;80.20
40085;DHT22;25786;51.504;7.344;2022-12-15T03:12:12;-3273.40;80.40
40085;DHT22;25786;51.504;7.344;2022-12-15T03:14:37;-3273.40;80.40
40085;DHT22;25786;51.504;7.344;2022-12-15T03:17:03;-3273.40;80.10
40085;DHT22;25786;51.504;7.344;2022-12-15T03:19:31;-3273.40;80.00
40085;DHT22;25786;51.504;7.344;2022-12-15T03:21:56;-3273.40;80.50
40085;DHT22;25786;51.504;7.344;2022-12-15T03:24:22;-3273.40;80.80
40085;DHT22;25786;51.504;7.344;2022-12-15T03:26:47;-3273.40;80.70
40085;DHT22;25786;51.504;7.344;2022-12-15T03:29:15;-3273.50;80.70
40085;DHT22;25786;51.504;7.344;2022-12-15T03:31:41;-3273.50;80.70
40085;DHT22;25786;51.504;7.344;2022-12-15T03:34:06;-3273.40;80.90
40085;DHT22;25786;51.504;7.344;2022-12-15T03:36:32;-3273.30;81.10
40085;DHT22;25786;51.504;7.344;2022-12-15T03:38:58;-3273.30;81.20
40085;DHT22;25786;51.504;7.344;2022-12-15T03:41:23;-3273.20;81.10
40085;DHT22;25786;51.504;7.344;2022-12-15T03:43:49;-3273.10;81.30
40085;DHT22;25786;51.504;7.344;2022-12-15T03:46:14;-3273.10;81.80
40085;DHT22;25786;51.504;7.344;2022-12-15T03:48:40;-3273.10;81.90
40085;DHT22;25786;51.504;7.344;2022-12-15T03:51:05;-3273.10;81.90
40085;DHT22;25786;51.504;7.344;2022-12-15T03:53:31;-3273.00;81.90
40085;DHT22;25786;51.504;7.344;2022-12-15T03:55:56;-3273.00;82.10
40085;DHT22;25786;51.504;7.344;2022-12-15T03:58:21;-3273.10;82.00
40085;DHT22;25786;51.504;7.344;2022-12-15T04:00:47;-3273.10;81.80
40085;DHT22;25786;51.504;7.344;2022-12-15T04:03:12;-3273.10;81.80
40085;DHT22;25786;51.504;7.344;2022-12-15T04:05:38;-3273.10;81.80
40085;DHT22;25786;51.504;7.344;2022-12-15T04:08:03;-3273.10;82.10
40085;DHT22;25786;51.504;7.344;2022-12-15T04:10:30;-3273.20;81.80
40085;DHT22;25786;51.504;7.344;2022-12-15T04:12:59;-3273.10;81.60
40085;DHT22;25786;51.504;7.344;2022-12-15T04:15:25;-3273.10;81.70
40085;DHT22;25786;51.504;7.344;2022-12-15T04:17:51;-3273.20;81.90
40085;DHT22;25786;51.504;7.344;2022-12-15T04:20:16;-3273.20;81.80
40085;DHT22;25786;51.504;7.344;2022-12-15T04:22:43;-3273.10;81.80
40085;DHT22;25786;51.504;7.344;2022-12-15T04:25:19;-3273.10;82.10
40085;DHT22;25786;51.504;7.344;2022-12-15T04:28:04;-3273.10;81.90
40085;DHT22;25786;51.504;7.344;2022-12-15T04:30:52;-3273.10;82.10
40085;DHT22;25786;51.504;7.344;2022-12-15T04:33:38;-3273.10;82.00
40085;DHT22;25786;51.504;7.344;2022-12-15T04:36:23;-3273.10;82.10
40085;DHT22;25786;51.504;7.344;2022-12-15T04:39:07;-3273.20;82.00
40085;DHT22;25786;51.504;7.344;2022-12-15T04:41:51;-3273.20;82.00
40085;DHT22;25786;51.504;7.344;2022-12-15T04:44:37;-3273.10;82.00
40085;DHT22;25786;51.504;7.344;2022-12-15T04:47:21;-3273.20;82.10
40085;DHT22;25786;51.504;7.344;2022-12-15T04:50:05;-3273.20;82.00
40085;DHT22;25786;51.504;7.344;2022-12-15T04:52:49;-3273.20;82.10
40085;DHT22;25786;51.504;7.344;2022-12-15T04:55:34;-3273.20;82.20
40085;DHT22;25786;51.504;7.344;2022-12-15T04:58:18;-3273.20;82.10
40085;DHT22;25786;51.504;7.344;2022-12-15T05:01:03;-3273.10;82.00
40085;DHT22;25786;51.504;7.344;2022-12-15T05:03:47;-3273.20;81.90
40085;DHT22;25786;51.504;7.344;2022-12-15T05:06:31;-3273.30;81.50
40085;DHT22;25786;51.504;7.344;2022-12-15T05:09:15;-3273.30;81.30
40085;DHT22;25786;51.504;7.344;2022-12-15T05:11:59;-3273.20;81.60
40085;DHT22;25786;51.504;7.344;2022-12-15T05:14:44;-3273.10;81.30
40085;DHT22;25786;51.504;7.344;2022-12-15T05:17:28;-3273.10;81.70
40085;DHT22;25786;51.504;7.344;2022-12-15T05:20:12;-3273.20;81.70
40085;DHT22;25786;51.504;7.344;2022-12-15T05:22:57;-3273.20;81.30
40085;DHT22;25786;51.504;7.344;2022-12-15T05:25:41;-3273.30;81.20
40085;DHT22;25786;51.504;7.344;2022-12-15T05:28:25;-3273.20;81.20
40085;DHT22;25786;51.504;7.344;2022-12-15T05:31:09;-3273.10;81.20
40085;DHT22;25786;51.504;7.344;2022-12-15T05:33:53;-3273.20;81.40
40085;DHT22;25786;51.504;7.344;2022-12-15T05:36:19;-3273.20;81.30
40085;DHT22;25786;51.504;7.344;2022-12-15T05:38:48;-3273.20;81.50
40085;DHT22;25786;51.504;7.344;2022-12-15T05:41:14;-3273.20;81.30
40085;DHT22;25786;51.504;7.344;2022-12-15T05:43:39;-3273.20;81.30
40085;DHT22;25786;51.504;7.344;2022-12-15T05:46:05;-3273.20;81.70
40085;DHT22;25786;51.504;7.344;2022-12-15T05:48:31;-3273.10;82.10
40085;DHT22;25786;51.504;7.344;2022-12-15T05:50:56;-3273.20;82.10
40085;DHT22;25786;51.504;7.344;2022-12-15T05:53:22;-3273.20;81.80
40085;DHT22;25786;51.504;7.344;2022-12-15T05:55:47;-3273.20;82.10
40085;DHT22;25786;51.504;7.344;2022-12-15T05:58:12;-3273.20;82.10
40085;DHT22;25786;51.504;7.344;2022-12-15T06:00:38;-3273.20;81.90
40085;DHT22;25786;51.504;7.344;2022-12-15T06:03:03;-3273.30;81.70
40085;DHT22;25786;51.504;7.344;2022-12-15T06:05:29;-3273.20;81.60
40085;DHT22;25786;51.504;7.344;2022-12-15T06:07:54;-3273.20;81.70
40085;DHT22;25786;51.504;7.344;2022-12-15T06:10:20;-3273.20;81.60
40085;DHT22;25786;51.504;7.344;2022-12-15T06:12:46;-3273.20;81.60
40085;DHT22;25786;51.504;7.344;2022-12-15T06:15:12;-3273.20;81.40
40085;DHT22;25786;51.504;7.344;2022-12-15T06:17:37;-3273.30;81.70
40085;DHT22;25786;51.504;7.344;2022-12-15T06:20:03;-3273.30;81.60
40085;DHT22;25786;51.504;7.344;2022-12-15T06:22:28;-3273.20;81.40
40085;DHT22;25786;51.504;7.344;2022-12-15T06:24:54;-3273.30;81.70
40085;DHT22;25786;51.504;7.344;2022-12-15T06:27:19;-3273.30;81.30
40085;DHT22;25786;51.504;7.344;2022-12-15T06:29:45;-3273.30;81.50
40085;DHT22;25786;51.504;7.344;2022-12-15T06:32:10;-3273.30;81.40
40085;DHT22;25786;51.504;7.344;2022-12-15T06:34:36;-3273.30;81.20
40085;DHT22;25786;51.504;7.344;2022-12-15T06:37:01;-3273.30;81.10
40085;DHT22;25786;51.504;7.344;2022-12-15T06:39:27;-3273.30;81.00
40085;DHT22;25786;51.504;7.344;2022-12-15T06:41:52;-3273.30;80.90
40085;DHT22;25786;51.504;7.344;2022-12-15T06:44:18;-3273.20;81.10
40085;DHT22;25786;51.504;7.344;2022-12-15T06:46:43;-3273.10;81.20
40085;DHT22;25786;51.504;7.344;2022-12-15T06:49:10;-3273.10;81.40
40085;DHT22;25786;51.504;7.344;2022-12-15T06:51:35;-3273.10;81.70
40085;DHT22;25786;51.504;7.344;2022-12-15T06:54:01;-3273.10;82.00
40085;DHT22;25786;51.504;7.344;2022-12-15T06:56:30;-3273.00;81.90
40085;DHT22;25786;51.504;7.344;2022-12-15T06:58:56;-3273.10;82.00
40085;DHT22;25786;51.504;7.344;2022-12-15T07:01:25;-3273.00;81.90
40085;DHT22;25786;51.504;7.344;2022-12-15T07:03:51;-3273.00;81.90
40085;DHT22;25786;51.504;7.344;2022-12-15T07:06:17;-3273.00;82.00
40085;DHT22;25786;51.504;7.344;2022-12-15T07:08:43;-3273.10;82.20
40085;DHT22;25786;51.504;7.344;2022-12-15T07:11:11;-3273.20;82.00
40085;DHT22;25786;51.504;7.344;2022-12-15T07:13:37;-3273.10;81.70
40085;DHT22;25786;51.504;7.344;2022-12-15T07:16:03;-3273.20;81.60
40085;DHT22;25786;51.504;7.344;2022-12-15T07:18:29;-3273.20;81.70
40085;DHT22;25786;51.504;7.344;2022-12-15T07:21:01;-3273.20;81.60
40085;DHT22;25786;51.504;7.344;2022-12-15T07:23:27;-3273.20;81.60
40085;DHT22;25786;51.504;7.344;2022-12-15T07:25:53;-3273.20;81.60
40085;DHT22;25786;51.504;7.344;2022-12-15T07:28:18;-3273.20;81.70
40085;DHT22;25786;51.504;7.344;2022-12-15T07:30:44;-3273.20;81.70
40085;DHT22;25786;51.504;7.344;2022-12-15T07:33:09;-3273.20;81.60
40085;DHT22;25786;51.504;7.344;2022-12-15T07:35:35;-3273.20;81.60
40085;DHT22;25786;51.504;7.344;2022-12-15T07:38:03;-3273.20;81.70
40085;DHT22;25786;51.504;7.344;2022-12-15T07:40:29;-3273.20;81.80
40085;DHT22;25786;51.504;7.344;2022-12-15T07:42:55;-3273.30;81.80
40085;DHT22;25786;51.504;7.344;2022-12-15T07:45:20;-3273.20;81.50
40085;DHT22;25786;51.504;7.344;2022-12-15T07:47:47;-3273.20;81.70
40085;DHT22;25786;51.504;7.344;2022-12-15T07:50:14;-3273.30;81.70
40085;DHT22;25786;51.504;7.344;2022-12-15T07:52:39;-3273.40;81.60
40085;DHT22;25786;51.504;7.344;2022-12-15T07:55:05;-3273.30;81.20
40085;DHT22;25786;51.504;7.344;2022-12-15T07:57:31;-3273.40;81.20
40085;DHT22;25786;51.504;7.344;2022-12-15T07:59:57;-3273.40;81.10
40085;DHT22;25786;51.504;7.344;2022-12-15T08:02:22;-3273.40;81.00
40085;DHT22;25786;51.504;7.344;2022-12-15T08:04:47;-3273.40;81.10
40085;DHT22;25786;51.504;7.344;2022-12-15T08:07:13;-3273.40;81.00
40085;DHT22;25786;51.504;7.344;2022-12-15T08:09:38;-3273.40;81.20
40085;DHT22;25786;51.504;7.344;2022-12-15T08:12:04;-3273.40;81.10
40085;DHT22;25786;51.504;7.344;2022-12-15T08:14:29;-3273.30;81.30
40085;DHT22;25786;51.504;7.344;2022-12-15T08:16:56;-3273.40;81.50
40085;DHT22;25786;51.504;7.344;2022-12-15T08:19:21;-3273.40;81.50
40085;DHT22;25786;51.504;7.344;2022-12-15T08:21:47;-3273.50;81.40
40085;DHT22;25786;51.504;7.344;2022-12-15T08:24:13;-3273.50;81.40
40085;DHT22;25786;51.504;7.344;2022-12-15T08:26:39;-3273.50;81.30
40085;DHT22;25786;51.504;7.344;2022-12-15T08:29:04;-3273.50;81.50
40085;DHT22;25786;51.504;7.344;2022-12-15T08:31:30;-3273.50;81.60
40085;DHT22;25786;51.504;7.344;2022-12-15T08:33:57;-3273.50;81.40
40085;DHT22;25786;51.504;7.344;2022-12-15T08:36:23;-3273.50;81.70
40085;DHT22;25786;51.504;7.344;2022-12-15T08:38:48;-3273.50;81.80
40085;DHT22;25786;51.504;7.344;2022-12-15T08:41:18;-3273.60;81.80
40085;DHT22;25786;51.504;7.344;2022-12-15T08:43:44;-3273.70;81.30
40085;DHT22;25786;51.504;7.344;2022-12-15T08:46:10;-3273.70;81.20
40085;DHT22;25786;51.504;7.344;2022-12-15T08:48:37;-3273.70;81.20
40085;DHT22;25786;51.504;7.344;2022-12-15T08:51:02;-3273.70;81.30
40085;DHT22;25786;51.504;7.344;2022-12-15T08:53:27;-3273.80;81.10
40085;DHT22;25786;51.504;7.344;2022-12-15T08:55:53;-3273.90;81.30
40085;DHT22;25786;51.504;7.344;2022-12-15T08:58:19;-3273.90;81.20
40085;DHT22;25786;51.504;7.344;2022-12-15T09:00:44;-3273.90;81.00
40085;DHT22;25786;51.504;7.344;2022-12-15T09:03:10;-3274.00;80.80
40085;DHT22;25786;51.504;7.344;2022-12-15T09:05:36;-3274.00;80.90
40085;DHT22;25786;51.504;7.344;2022-12-15T09:08:01;-3274.10;80.90
40085;DHT22;25786;51.504;7.344;2022-12-15T09:10:27;-3274.20;80.90
40085;DHT22;25786;51.504;7.344;2022-12-15T09:12:52;-3274.20;80.60
40085;DHT22;25786;51.504;7.344;2022-12-15T09:15:18;-3274.20;80.50
40085;DHT22;25786;51.504;7.344;2022-12-15T09:17:44;-3274.20;80.60
40085;DHT22;25786;51.504;7.344;2022-12-15T09:20:09;-3274.30;80.60
40085;DHT22;25786;51.504;7.344;2022-12-15T09:22:35;-3274.30;80.40
40085;DHT22;25786;51.504;7.344;2022-12-15T09:25:01;-3274.20;80.50
40085;DHT22;25786;51.504;7.344;2022-12-15T09:27:26;-3274.30;80.50
40085;DHT22;25786;51.504;7.344;2022-12-15T09:29:55;-3274.30;80.30
40085;DHT22;25786;51.504;7.344;2022-12-15T09:32:20;-3274.40;80.00
40085;DHT22;25786;51.504;7.344;2022-12-15T09:34:46;-3274.40;80.10
40085;DHT22;25786;51.504;7.344;2022-12-15T09:37:11;-3274.50;80.00
40085;DHT22;25786;51.504;7.344;2022-12-15T09:39:37;-3274.50;80.00
40085;DHT22;25786;51.504;7.344;2022-12-15T09:42:04;-3274.50;79.90
40085;DHT22;25786;51.504;7.344;2022-12-15T09:44:30;-3274.60;79.90
40085;DHT22;25786;51.504;7.344;2022-12-15T09:47:02;-3274.70;79.40
40085;DHT22;25786;51.504;7.344;2022-12-15T09:49:38;-3274.70;79.40
40085;DHT22;25786;51.504;7.344;2022-12-15T09:52:17;-3274.80;79.50
40085;DHT22;25786;51.504;7.344;2022-12-15T09:54:43;-3274.70;79.60
40085;DHT22;25786;51.504;7.344;2022-12-15T09:57:15;-3274.80;79.70
40085;DHT22;25786;51.504;7.344;2022-12-15T10:04:46;-3275.00;79.20
40085;DHT22;25786;51.504;7.344;2022-12-15T10:07:19;-3275.00;78.50
40085;DHT22;25786;51.504;7.344;2022-12-15T10:09:48;-3275.10;78.30
40085;DHT22;25786;51.504;7.344;2022-12-15T10:12:19;-3275.10;78.30
40085;DHT22;25786;51.504;7.344;2022-12-15T10:14:53;-3275.10;78.50
40085;DHT22;25786;51.504;7.344;2022-12-15T10:17:33;-3275.20;78.50
40085;DHT22;25786;51.504;7.344;2022-12-15T10:20:03;-3275.30;78.40
40085;DHT22;25786;51.504;7.344;2022-12-15T10:22:30;-3275.40;77.70
40085;DHT22;25786;51.504;7.344;2022-12-15T10:24:57;-3275.50;77.40
40085;DHT22;25786;51.504;7.344;2022-12-15T10:29:55;-3275.50;77.10
40085;DHT22;25786;51.504;7.344;2022-12-15T10:32:24;-3275.50;77.10
40085;DHT22;25786;51.504;7.344;2022-12-15T10:34:54;-3275.50;77.10
40085;DHT22;25786;51.504;7.344;2022-12-15T10:37:20;-3275.60;77.10
40085;DHT22;25786;51.504;7.344;2022-12-15T10:39:46;-3275.70;77.00
40085;DHT22;25786;51.504;7.344;2022-12-15T10:42:19;-3275.70;76.60
40085;DHT22;25786;51.504;7.344;2022-12-15T10:44:46;-3275.80;76.40
40085;DHT22;25786;51.504;7.344;2022-12-15T10:47:28;-3275.90;76.10
40085;DHT22;25786;51.504;7.344;2022-12-15T10:49:54;-3275.90;75.90
40085;DHT22;25786;51.504;7.344;2022-12-15T10:52:30;-3276.00;75.60
40085;DHT22;25786;51.504;7.344;2022-12-15T10:54:56;-3276.00;75.20
40085;DHT22;25786;51.504;7.344;2022-12-15T10:57:23;-3276.00;75.20
40085;DHT22;25786;51.504;7.344;2022-12-15T10:59:52;-3276.10;75.30
40085;DHT22;25786;51.504;7.344;2022-12-15T11:07:36;-3276.10;75.70
40085;DHT22;25786;51.504;7.344;2022-12-15T11:10:08;-3276.20;76.10
40085;DHT22;25786;51.504;7.344;2022-12-15T11:12:37;-3276.20;76.00
40085;DHT22;25786;51.504;7.344;2022-12-15T11:17:44;-3276.40;75.60
40085;DHT22;25786;51.504;7.344;2022-12-15T11:20:11;-3276.50;75.60
40085;DHT22;25786;51.504;7.344;2022-12-15T11:22:43;-3276.60;74.80
40085;DHT22;25786;51.504;7.344;2022-12-15T11:27:36;0.00;74.20
40085;DHT22;25786;51.504;7.344;2022-12-15T11:32:40;0.00;74.10
40085;DHT22;25786;51.504;7.344;2022-12-15T11:35:46;0.00;73.90
40085;DHT22;25786;51.504;7.344;2022-12-15T11:38:11;0.00;73.90
40085;DHT22;25786;51.504;7.344;2022-12-15T11:40:41;0.00;74.00
40085;DHT22;25786;51.504;7.344;2022-12-15T11:48:36;0.20;73.80
40085;DHT22;25786;51.504;7.344;2022-12-15T11:51:05;0.20;74.30
40085;DHT22;25786;51.504;7.344;2022-12-15T11:53:46;0.20;74.30
40085;DHT22;25786;51.504;7.344;2022-12-15T11:56:26;0.20;74.80
40085;DHT22;25786;51.504;7.344;2022-12-15T11:58:55;0.20;75.00
40085;DHT22;25786;51.504;7.344;2022-12-15T12:11:48;0.50;74.40
40085;DHT22;25786;51.504;7.344;2022-12-15T12:14:21;0.60;74.10
40085;DHT22;25786;51.504;7.344;2022-12-15T12:19:23;0.80;73.90
40085;DHT22;25786;51.504;7.344;2022-12-15T12:21:53;0.90;73.60
40085;DHT22;25786;51.504;7.344;2022-12-15T12:24:25;0.90;73.60
40085;DHT22;25786;51.504;7.344;2022-12-15T12:26:53;0.80;73.80
40085;DHT22;25786;51.504;7.344;2022-12-15T12:29:25;0.80;73.70
40085;DHT22;25786;51.504;7.344;2022-12-15T12:31:56;0.80;73.70
40085;DHT22;25786;51.504;7.344;2022-12-15T12:37:30;0.70;74.40
40085;DHT22;25786;51.504;7.344;2022-12-15T12:40:00;0.80;74.60
40085;DHT22;25786;51.504;7.344;2022-12-15T12:42:29;0.70;74.40
40085;DHT22;25786;51.504;7.344;2022-12-15T12:44:57;0.90;74.30
40085;DHT22;25786;51.504;7.344;2022-12-15T12:47:26;0.90;73.80
40085;DHT22;25786;51.504;7.344;2022-12-15T12:49:55;0.90;74.10
40085;DHT22;25786;51.504;7.344;2022-12-15T12:52:23;0.90;73.70
40085;DHT22;25786;51.504;7.344;2022-12-15T12:57:36;0.80;73.90
40085;DHT22;25786;51.504;7.344;2022-12-15T13:00:19;0.80;73.90
40085;DHT22;25786;51.504;7.344;2022-12-15T13:12:57;0.80;74.10
40085;DHT22;25786;51.504;7.344;2022-12-15T13:17:58;0.80;74.40
40085;DHT22;25786;51.504;7.344;2022-12-15T13:20:26;0.80;74.60
40085;DHT22;25786;51.504;7.344;2022-12-15T13:22:52;0.80;74.50
40085;DHT22;25786;51.504;7.344;2022-12-15T13:33:30;0.90;75.20
40085;DHT22;25786;51.504;7.344;2022-12-15T13:35:55;0.90;75.10
40085;DHT22;25786;51.504;7.344;2022-12-15T13:38:30;0.90;75.30
40085;DHT22;25786;51.504;7.344;2022-12-15T13:41:20;0.90;75.20
40085;DHT22;25786;51.504;7.344;2022-12-15T13:43:46;1.10;74.90
40085;DHT22;25786;51.504;7.344;2022-12-15T13:46:17;1.10;74.90
40085;DHT22;25786;51.504;7.344;2022-12-15T13:48:45;1.10;75.20
40085;DHT22;25786;51.504;7.344;2022-12-15T13:51:17;1.00;75.20
40085;DHT22;25786;51.504;7.344;2022-12-15T13:53:46;1.10;75.20
40085;DHT22;25786;51.504;7.344;2022-12-15T13:58:55;1.10;74.80
40085;DHT22;25786;51.504;7.344;2022-12-15T14:01:25;1.10;74.60
40085;DHT22;25786;51.504;7.344;2022-12-15T14:04:10;1.10;74.60
40085;DHT22;25786;51.504;7.344;2022-12-15T14:06:50;1.10;74.50
40085;DHT22;25786;51.504;7.344;2022-12-15T14:09:36;1.00;75.00
40085;DHT22;25786;51.504;7.344;2022-12-15T14:12:03;0.90;75.10
40085;DHT22;25786;51.504;7.344;2022-12-15T14:14:33;0.90;75.20
40085;DHT22;25786;51.504;7.344;2022-12-15T14:17:00;0.90;75.40
40085;DHT22;25786;51.504;7.344;2022-12-15T14:19:35;0.90;75.60
40085;DHT22;25786;51.504;7.344;2022-12-15T14:22:01;0.80;75.50
40085;DHT22;25786;51.504;7.344;2022-12-15T14:24:28;0.80;75.70
40085;DHT22;25786;51.504;7.344;2022-12-15T14:26:54;0.80;75.90
40085;DHT22;25786;51.504;7.344;2022-12-15T14:29:19;0.80;76.10
40085;DHT22;25786;51.504;7.344;2022-12-15T14:31:49;0.80;76.00
40085;DHT22;25786;51.504;7.344;2022-12-15T14:37:06;0.60;76.50
40085;DHT22;25786;51.504;7.344;2022-12-15T14:39:33;0.60;76.80
40085;DHT22;25786;51.504;7.344;2022-12-15T14:42:00;0.50;77.40
40085;DHT22;25786;51.504;7.344;2022-12-15T14:44:27;0.50;77.70
40085;DHT22;25786;51.504;7.344;2022-12-15T14:46:53;0.40;77.90
40085;DHT22;25786;51.504;7.344;2022-12-15T14:49:26;0.40;78.40
40085;DHT22;25786;51.504;7.344;2022-12-15T14:51:57;0.30;78.40
40085;DHT22;25786;51.504;7.344;2022-12-15T14:54:29;0.20;78.70
40085;DHT22;25786;51.504;7.344;2022-12-15T14:56:58;0.10;78.90
40085;DHT22;25786;51.504;7.344;2022-12-15T14:59:23;0.10;79.10
40085;DHT22;25786;51.504;7.344;2022-12-15T15:01:50;0.00;79.30
40085;DHT22;25786;51.504;7.344;2022-12-15T15:04:21;0.00;79.70
40085;DHT22;25786;51.504;7.344;2022-12-15T15:06:51;0.00;79.50
40085;DHT22;25786;51.504;7.344;2022-12-15T15:11:43;0.00;79.90
40085;DHT22;25786;51.504;7.344;2022-12-15T15:14:27;0.20;78.90
40085;DHT22;25786;51.504;7.344;2022-12-15T15:17:01;0.20;78.30
40085;DHT22;25786;51.504;7.344;2022-12-15T15:19:28;0.30;77.70
40085;DHT22;25786;51.504;7.344;2022-12-15T15:21:54;0.40;77.20
40085;DHT22;25786;51.504;7.344;2022-12-15T15:24:24;0.30;77.30
40085;DHT22;25786;51.504;7.344;2022-12-15T15:26:50;0.20;77.70
40085;DHT22;25786;51.504;7.344;2022-12-15T15:32:04;0.20;78.00
40085;DHT22;25786;51.504;7.344;2022-12-15T15:34:29;0.20;77.70
40085;DHT22;25786;51.504;7.344;2022-12-15T15:36:55;0.10;78.10
40085;DHT22;25786;51.504;7.344;2022-12-15T15:39:20;0.00;78.30
40085;DHT22;25786;51.504;7.344;2022-12-15T15:41:47;0.00;78.30
40085;DHT22;25786;51.504;7.344;2022-12-15T15:44:14;-3276.70;78.40
40085;DHT22;25786;51.504;7.344;2022-12-15T15:46:47;-3276.60;78.70
40085;DHT22;25786;51.504;7.344;2022-12-15T15:49:14;-3276.50;79.20
40085;DHT22;25786;51.504;7.344;2022-12-15T15:51:40;-3276.50;79.00
40085;DHT22;25786;51.504;7.344;2022-12-15T15:54:09;-3276.40;79.00
40085;DHT22;25786;51.504;7.344;2022-12-15T15:56:35;-3276.40;79.30
40085;DHT22;25786;51.504;7.344;2022-12-15T15:59:04;-3276.30;79.50
40085;DHT22;25786;51.504;7.344;2022-12-15T16:01:33;-3276.30;79.70
40085;DHT22;25786;51.504;7.344;2022-12-15T16:03:59;-3276.20;79.80
40085;DHT22;25786;51.504;7.344;2022-12-15T16:06:24;-3276.20;79.90
40085;DHT22;25786;51.504;7.344;2022-12-15T16:08:51;-3276.20;79.90
40085;DHT22;25786;51.504;7.344;2022-12-15T16:11:18;-3276.20;80.10
40085;DHT22;25786;51.504;7.344;2022-12-15T16:13:44;-3276.10;80.10
40085;DHT22;25786;51.504;7.344;2022-12-15T16:16:20;-3276.10;80.20
40085;DHT22;25786;51.504;7.344;2022-12-15T16:18:46;-3276.00;80.00
40085;DHT22;25786;51.504;7.344;2022-12-15T16:21:12;-3275.90;80.20
40085;DHT22;25786;51.504;7.344;2022-12-15T16:23:38;-3275.90;80.40
40085;DHT22;25786;51.504;7.344;2022-12-15T16:26:07;-3275.90;80.70
40085;DHT22;25786;51.504;7.344;2022-12-15T16:28:34;-3275.90;80.80
40085;DHT22;25786;51.504;7.344;2022-12-15T16:30:59;-3275.90;80.60
40085;DHT22;25786;51.504;7.344;2022-12-15T16:33:25;-3275.80;80.40
40085;DHT22;25786;51.504;7.344;2022-12-15T16:35:51;-3275.80;80.30
40085;DHT22;25786;51.504;7.344;2022-12-15T16:38:20;-3275.80;80.40
40085;DHT22;25786;51.504;7.344;2022-12-15T16:40:47;-3275.80;80.40
40085;DHT22;25786;51.504;7.344;2022-12-15T16:43:16;-3275.70;80.40
40085;DHT22;25786;51.504;7.344;2022-12-15T16:45:43;-3275.70;80.10
40085;DHT22;25786;51.504;7.344;2022-12-15T16:48:09;-3275.70;80.30
40085;DHT22;25786;51.504;7.344;2022-12-15T16:50:35;-3275.70;80.40
40085;DHT22;25786;51.504;7.344;2022-12-15T16:53:02;-3275.60;80.50
40085;DHT22;25786;51.504;7.344;2022-12-15T16:55:29;-3275.60;80.10